createdAt,value
2018-03-29T00:00:41.159Z,993.01
2018-03-29T00:01:41.150Z,992.93
2018-03-29T00:02:41.139Z,992.93
2018-03-29T00:03:41.131Z,992.84
2018-03-29T00:04:41.124Z,992.86
2018-03-29T00:05:41.111Z,992.84
2018-03-29T00:06:41.101Z,992.79
2018-03-29T00:07:41.098Z,992.77
2018-03-29T00:08:41.079Z,992.74
2018-03-29T00:09:41.073Z,992.80
2018-03-29T00:10:41.066Z,992.73
2018-03-29T00:11:41.058Z,992.71
2018-03-29T00:12:41.044Z,992.69
2018-03-29T00:13:41.038Z,992.67
2018-03-29T00:14:41.025Z,992.62
2018-03-29T00:15:41.018Z,992.60
2018-03-29T00:16:41.009Z,992.61
2018-03-29T00:17:41.009Z,992.57
2018-03-29T00:18:40.987Z,992.58
2018-03-29T00:19:40.980Z,992.57
2018-03-29T00:20:40.968Z,992.59
2018-03-29T00:21:40.960Z,992.53
2018-03-29T00:22:40.950Z,992.54
2018-03-29T00:23:40.942Z,992.54
2018-03-29T00:24:40.931Z,992.50
2018-03-29T00:25:40.919Z,992.54
2018-03-29T00:26:40.920Z,992.44
2018-03-29T00:27:40.903Z,992.44
2018-03-29T00:28:40.895Z,992.41
2018-03-29T00:29:40.886Z,992.37
2018-03-29T00:30:40.875Z,992.44
2018-03-29T00:31:40.866Z,992.36
2018-03-29T00:32:40.854Z,992.38
2018-03-29T00:33:40.847Z,992.35
2018-03-29T00:34:40.840Z,992.36
2018-03-29T00:35:40.827Z,992.29
2018-03-29T00:36:40.818Z,992.33
2018-03-29T00:37:40.810Z,992.36
2018-03-29T00:38:40.800Z,992.30
2018-03-29T00:39:40.792Z,992.22
2018-03-29T00:40:40.784Z,992.25
2018-03-29T00:41:40.772Z,992.24
2018-03-29T00:42:40.765Z,992.20
2018-03-29T00:43:40.752Z,992.19
2018-03-29T00:44:40.745Z,992.20
2018-03-29T00:45:40.740Z,992.20
2018-03-29T00:46:40.726Z,992.19
2018-03-29T00:47:40.721Z,992.21
2018-03-29T00:48:40.706Z,992.17
2018-03-29T00:49:40.700Z,992.14
2018-03-29T00:50:40.687Z,992.11
2018-03-29T00:51:40.678Z,992.14
2018-03-29T00:52:40.670Z,992.13
2018-03-29T00:53:40.660Z,992.11
2018-03-29T00:54:40.647Z,992.16
2018-03-29T00:55:40.641Z,992.08
2018-03-29T00:56:40.632Z,992.06
2018-03-29T00:57:40.628Z,992.09
2018-03-29T00:58:40.614Z,992.09
2018-03-29T00:59:40.604Z,992.02
2018-03-29T01:00:40.596Z,992.03
2018-03-29T01:01:40.585Z,992.07
2018-03-29T01:02:40.577Z,992.11
2018-03-29T01:03:40.568Z,992.10
2018-03-29T01:04:40.559Z,992.05
2018-03-29T01:05:40.549Z,992.03
2018-03-29T01:06:40.539Z,992.05
2018-03-29T01:07:40.528Z,992.04
2018-03-29T01:08:40.521Z,992.02
2018-03-29T01:09:40.513Z,991.98
2018-03-29T01:10:40.505Z,991.98
2018-03-29T01:11:40.493Z,991.98
2018-03-29T01:12:40.487Z,991.96
2018-03-29T01:13:40.472Z,991.97
2018-03-29T01:14:40.466Z,991.98
2018-03-29T01:15:40.460Z,991.94
2018-03-29T01:16:40.447Z,991.97
2018-03-29T01:17:40.440Z,991.98
2018-03-29T01:18:40.427Z,991.95
2018-03-29T01:19:40.418Z,991.97
2018-03-29T01:20:40.412Z,991.99
2018-03-29T01:21:40.401Z,991.98
2018-03-29T01:22:40.393Z,992.01
2018-03-29T01:23:40.381Z,991.96
2018-03-29T01:24:40.372Z,991.93
2018-03-29T01:25:40.364Z,991.94
2018-03-29T01:26:40.351Z,991.89
2018-03-29T01:27:40.348Z,991.94
2018-03-29T01:28:40.336Z,991.96
2018-03-29T01:29:40.331Z,991.99
2018-03-29T01:30:40.329Z,991.98
2018-03-29T01:31:40.310Z,991.97
2018-03-29T01:32:40.295Z,991.97
2018-03-29T01:33:40.291Z,991.92
2018-03-29T01:34:40.282Z,991.92
2018-03-29T01:35:40.274Z,991.89
2018-03-29T01:36:40.261Z,991.92
2018-03-29T01:37:40.257Z,991.94
2018-03-29T01:38:40.250Z,991.99
2018-03-29T01:39:40.232Z,991.95
2018-03-29T01:40:40.231Z,991.94
2018-03-29T01:41:40.224Z,991.93
2018-03-29T01:42:40.210Z,991.90
2018-03-29T01:43:40.208Z,991.93
2018-03-29T01:44:40.193Z,991.92
2018-03-29T01:45:40.184Z,991.97
2018-03-29T01:46:40.174Z,991.99
2018-03-29T01:47:40.170Z,991.93
2018-03-29T01:48:40.158Z,992.00
2018-03-29T01:49:40.151Z,991.96
2018-03-29T01:50:40.139Z,991.97
2018-03-29T01:51:40.131Z,991.89
2018-03-29T01:52:40.119Z,991.94
2018-03-29T01:53:40.115Z,991.85
2018-03-29T01:54:40.104Z,991.89
2018-03-29T01:55:40.094Z,991.88
2018-03-29T01:56:40.090Z,991.88
2018-03-29T01:57:40.079Z,991.85
2018-03-29T01:58:40.070Z,991.88
2018-03-29T01:59:40.067Z,991.88
2018-03-29T02:00:40.053Z,991.84
2018-03-29T02:01:40.045Z,991.81
2018-03-29T02:02:40.035Z,991.81
2018-03-29T02:03:40.034Z,991.79
2018-03-29T02:04:40.025Z,991.77
2018-03-29T02:05:40.010Z,991.71
2018-03-29T02:06:40.001Z,991.72
2018-03-29T02:07:39.991Z,991.83
2018-03-29T02:08:39.982Z,991.86
2018-03-29T02:09:39.974Z,991.87
2018-03-29T02:10:39.962Z,991.85
2018-03-29T02:11:39.967Z,991.86
2018-03-29T02:12:39.947Z,991.85
2018-03-29T02:13:39.940Z,991.85
2018-03-29T02:14:39.930Z,991.87
2018-03-29T02:15:39.923Z,991.85
2018-03-29T02:16:39.917Z,991.91
2018-03-29T02:17:39.905Z,991.90
2018-03-29T02:18:39.896Z,991.97
2018-03-29T02:19:39.915Z,992.01
2018-03-29T02:20:39.883Z,992.10
2018-03-29T02:21:39.873Z,992.12
2018-03-29T02:22:39.862Z,992.16
2018-03-29T02:23:39.861Z,992.24
2018-03-29T02:24:39.845Z,992.20
2018-03-29T02:25:39.835Z,992.08
2018-03-29T02:26:39.827Z,992.05
2018-03-29T02:27:39.820Z,992.09
2018-03-29T02:28:39.814Z,992.01
2018-03-29T02:29:39.812Z,992.05
2018-03-29T02:30:39.794Z,992.04
2018-03-29T02:31:39.788Z,992.06
2018-03-29T02:32:39.774Z,992.09
2018-03-29T02:33:39.767Z,992.15
2018-03-29T02:34:39.761Z,992.11
2018-03-29T02:35:39.752Z,992.14
2018-03-29T02:36:39.744Z,992.13
2018-03-29T02:37:39.736Z,992.12
2018-03-29T02:38:39.729Z,992.14
2018-03-29T02:39:39.718Z,992.16
2018-03-29T02:40:39.710Z,992.11
2018-03-29T02:41:39.703Z,992.11
2018-03-29T02:42:39.697Z,992.13
2018-03-29T02:43:39.706Z,992.17
2018-03-29T02:44:39.676Z,992.14
2018-03-29T02:45:39.668Z,992.15
2018-03-29T02:46:39.659Z,992.25
2018-03-29T02:47:39.662Z,992.28
2018-03-29T02:48:39.643Z,992.30
2018-03-29T02:49:39.634Z,992.20
2018-03-29T02:50:39.625Z,992.19
2018-03-29T02:51:39.617Z,992.24
2018-03-29T02:52:39.608Z,992.20
2018-03-29T02:53:39.599Z,992.18
2018-03-29T02:54:39.592Z,992.20
2018-03-29T02:55:39.584Z,992.21
2018-03-29T02:56:39.575Z,992.16
2018-03-29T02:57:39.571Z,992.17
2018-03-29T02:58:39.559Z,992.19
2018-03-29T02:59:39.550Z,992.23
2018-03-29T03:00:39.542Z,992.24
2018-03-29T03:01:39.536Z,992.26
2018-03-29T03:02:39.524Z,992.30
2018-03-29T03:03:39.516Z,992.28
2018-03-29T03:04:39.507Z,992.15
2018-03-29T03:05:39.500Z,992.07
2018-03-29T03:06:39.488Z,992.20
2018-03-29T03:07:39.486Z,992.22
2018-03-29T03:08:39.474Z,992.27
2018-03-29T03:09:39.469Z,992.24
2018-03-29T03:10:39.460Z,992.17
2018-03-29T03:11:39.450Z,992.21
2018-03-29T03:12:39.443Z,992.23
2018-03-29T03:13:39.432Z,992.23
2018-03-29T03:14:39.426Z,992.30
2018-03-29T03:15:39.419Z,992.26
2018-03-29T03:16:39.410Z,992.28
2018-03-29T03:17:39.402Z,992.34
2018-03-29T03:18:39.390Z,992.31
2018-03-29T03:19:39.387Z,992.34
2018-03-29T03:20:39.375Z,992.36
2018-03-29T03:21:39.371Z,992.39
2018-03-29T03:22:39.357Z,992.39
2018-03-29T03:23:39.359Z,992.40
2018-03-29T03:24:39.356Z,992.43
2018-03-29T03:25:39.336Z,992.47
2018-03-29T03:26:39.334Z,992.50
2018-03-29T03:27:39.318Z,992.53
2018-03-29T03:28:39.313Z,992.54
2018-03-29T03:29:39.307Z,992.54
2018-03-29T03:30:39.307Z,992.56
2018-03-29T03:31:39.292Z,992.54
2018-03-29T03:32:39.281Z,992.58
2018-03-29T03:33:39.274Z,992.66
2018-03-29T03:34:39.263Z,992.62
2018-03-29T03:35:39.257Z,992.66
2018-03-29T03:36:39.248Z,992.68
2018-03-29T03:37:39.242Z,992.66
2018-03-29T03:38:39.237Z,992.61
2018-03-29T03:39:39.228Z,992.67
2018-03-29T03:40:39.218Z,992.74
2018-03-29T03:41:39.208Z,992.76
2018-03-29T03:42:39.202Z,992.74
2018-03-29T03:43:39.195Z,992.75
2018-03-29T03:44:39.188Z,992.71
2018-03-29T03:45:39.181Z,992.75
2018-03-29T03:46:39.171Z,992.85
2018-03-29T03:47:39.164Z,992.81
2018-03-29T03:48:39.154Z,992.79
2018-03-29T03:49:39.147Z,992.90
2018-03-29T03:50:39.139Z,992.90
2018-03-29T03:51:39.131Z,992.94
2018-03-29T03:52:39.123Z,992.92
2018-03-29T03:53:39.116Z,992.96
2018-03-29T03:54:39.107Z,992.95
2018-03-29T03:55:39.097Z,992.98
2018-03-29T03:56:39.092Z,992.94
2018-03-29T03:57:39.084Z,993.07
2018-03-29T03:58:39.076Z,993.05
2018-03-29T03:59:39.069Z,993.06
2018-03-29T04:00:39.061Z,993.11
2018-03-29T04:01:39.052Z,993.09
2018-03-29T04:02:39.042Z,993.06
2018-03-29T04:03:39.037Z,993.13
2018-03-29T04:04:39.043Z,993.14
2018-03-29T04:05:39.022Z,993.12
2018-03-29T04:06:39.015Z,993.14
2018-03-29T04:07:39.014Z,993.15
2018-03-29T04:08:39.002Z,993.22
2018-03-29T04:09:38.987Z,993.20
2018-03-29T04:10:38.982Z,993.21
2018-03-29T04:11:38.974Z,993.22
2018-03-29T04:12:38.967Z,993.30
2018-03-29T04:13:38.959Z,993.27
2018-03-29T04:14:38.952Z,993.31
2018-03-29T04:15:38.942Z,993.34
2018-03-29T04:16:38.932Z,993.38
2018-03-29T04:17:38.928Z,993.41
2018-03-29T04:18:38.920Z,993.47
2018-03-29T04:19:38.912Z,993.45
2018-03-29T04:20:38.904Z,993.19
2018-03-29T04:21:38.898Z,993.44
2018-03-29T04:22:38.886Z,993.54
2018-03-29T04:23:38.876Z,993.61
2018-03-29T04:24:38.918Z,993.64
2018-03-29T04:25:38.869Z,993.57
2018-03-29T04:26:38.856Z,993.62
2018-03-29T04:27:38.844Z,993.68
2018-03-29T04:28:38.845Z,993.69
2018-03-29T04:29:38.835Z,993.71
2018-03-29T04:30:38.830Z,993.73
2018-03-29T04:31:38.818Z,993.71
2018-03-29T04:32:38.810Z,993.69
2018-03-29T04:33:38.802Z,993.72
2018-03-29T04:34:38.795Z,993.76
2018-03-29T04:35:38.787Z,993.80
2018-03-29T04:36:38.777Z,993.88
2018-03-29T04:37:38.771Z,993.76
2018-03-29T04:38:38.762Z,993.82
2018-03-29T04:39:38.756Z,993.87
2018-03-29T04:40:38.746Z,993.93
2018-03-29T04:41:38.744Z,993.88
2018-03-29T04:42:38.729Z,993.83
2018-03-29T04:43:38.721Z,993.84
2018-03-29T04:44:38.711Z,994.00
2018-03-29T04:45:38.707Z,993.93
2018-03-29T04:46:38.697Z,993.93
2018-03-29T04:47:38.689Z,994.00
2018-03-29T04:48:38.684Z,993.98
2018-03-29T04:49:38.671Z,993.99
2018-03-29T04:50:38.665Z,994.03
2018-03-29T04:51:38.654Z,994.08
2018-03-29T04:52:38.651Z,994.03
2018-03-29T04:53:38.640Z,994.08
2018-03-29T04:54:38.634Z,994.10
2018-03-29T04:55:38.628Z,994.17
2018-03-29T04:56:38.617Z,994.07
2018-03-29T04:57:38.613Z,994.12
2018-03-29T04:58:38.598Z,994.15
2018-03-29T04:59:38.596Z,994.21
2018-03-29T05:00:38.581Z,994.23
2018-03-29T05:01:38.578Z,994.18
2018-03-29T05:02:38.571Z,994.17
2018-03-29T05:03:38.557Z,994.24
2018-03-29T05:04:38.554Z,994.26
2018-03-29T05:05:38.541Z,994.28
2018-03-29T05:06:38.539Z,994.31
2018-03-29T05:07:38.546Z,994.35
2018-03-29T05:08:38.520Z,994.42
2018-03-29T05:09:38.520Z,994.42
2018-03-29T05:10:38.498Z,994.36
2018-03-29T05:11:38.495Z,994.40
2018-03-29T05:12:38.486Z,994.40
2018-03-29T05:13:38.482Z,994.57
2018-03-29T05:14:38.471Z,994.58
2018-03-29T05:15:38.464Z,994.52
2018-03-29T05:16:38.458Z,994.47
2018-03-29T05:17:38.443Z,994.60
2018-03-29T05:18:38.438Z,994.63
2018-03-29T05:19:38.429Z,994.55
2018-03-29T05:20:38.423Z,994.55
2018-03-29T05:21:38.415Z,994.63
2018-03-29T05:22:38.408Z,994.62
2018-03-29T05:23:38.406Z,994.63
2018-03-29T05:24:38.390Z,994.57
2018-03-29T05:25:38.384Z,994.69
2018-03-29T05:26:38.377Z,994.58
2018-03-29T05:27:38.366Z,994.69
2018-03-29T05:28:38.359Z,994.69
2018-03-29T05:29:38.350Z,994.69
2018-03-29T05:30:38.339Z,994.72
2018-03-29T05:31:38.356Z,994.78
2018-03-29T05:32:38.324Z,994.69
2018-03-29T05:33:38.319Z,994.90
2018-03-29T05:34:38.308Z,994.81
2018-03-29T05:35:38.302Z,994.86
2018-03-29T05:36:38.293Z,994.95
2018-03-29T05:37:38.286Z,994.91
2018-03-29T05:38:38.279Z,994.94
2018-03-29T05:39:38.552Z,994.92
2018-03-29T05:40:38.261Z,994.93
2018-03-29T05:41:38.254Z,994.96
2018-03-29T05:42:38.245Z,995.00
2018-03-29T05:43:38.240Z,994.97
2018-03-29T05:44:38.229Z,994.95
2018-03-29T05:45:38.219Z,995.03
2018-03-29T05:46:38.212Z,995.02
2018-03-29T05:47:38.205Z,995.04
2018-03-29T05:48:38.197Z,995.08
2018-03-29T05:49:38.187Z,995.06
2018-03-29T05:50:38.176Z,995.18
2018-03-29T05:51:38.171Z,995.11
2018-03-29T05:52:38.163Z,995.13
2018-03-29T05:53:38.155Z,995.12
2018-03-29T05:54:38.146Z,995.16
2018-03-29T05:55:38.143Z,995.25
2018-03-29T05:56:38.134Z,995.17
2018-03-29T05:57:38.162Z,995.23
2018-03-29T05:58:38.115Z,995.25
2018-03-29T05:59:38.106Z,995.27
2018-03-29T06:00:38.095Z,995.23
2018-03-29T06:01:38.093Z,995.32
2018-03-29T06:02:38.092Z,995.21
2018-03-29T06:03:38.077Z,995.37
2018-03-29T06:04:38.066Z,995.30
2018-03-29T06:05:38.058Z,995.34
2018-03-29T06:06:38.048Z,995.34
2018-03-29T06:07:38.038Z,995.37
2018-03-29T06:08:38.033Z,995.42
2018-03-29T06:09:38.028Z,995.42
2018-03-29T06:10:38.017Z,995.42
2018-03-29T06:11:38.011Z,995.47
2018-03-29T06:12:38.006Z,995.41
2018-03-29T06:13:37.994Z,995.42
2018-03-29T06:14:37.982Z,995.41
2018-03-29T06:15:37.976Z,995.50
2018-03-29T06:16:37.970Z,995.46
2018-03-29T06:17:37.960Z,995.46
2018-03-29T06:18:37.954Z,995.48
2018-03-29T06:19:37.944Z,995.46
2018-03-29T06:20:37.936Z,995.45
2018-03-29T06:21:37.925Z,995.42
2018-03-29T06:22:37.918Z,995.49
2018-03-29T06:23:37.912Z,995.48
2018-03-29T06:24:37.903Z,995.52
2018-03-29T06:25:37.899Z,995.45
2018-03-29T06:26:37.885Z,995.47
2018-03-29T06:27:37.879Z,995.48
2018-03-29T06:28:37.869Z,995.50
2018-03-29T06:29:37.865Z,995.51
2018-03-29T06:30:37.854Z,995.47
2018-03-29T06:31:37.846Z,995.54
2018-03-29T06:32:37.845Z,995.54
2018-03-29T06:33:37.833Z,995.54
2018-03-29T06:34:37.825Z,995.51
2018-03-29T06:35:37.813Z,995.52
2018-03-29T06:36:37.806Z,995.57
2018-03-29T06:37:37.801Z,995.54
2018-03-29T06:38:37.797Z,995.52
2018-03-29T06:39:37.786Z,995.62
2018-03-29T06:40:37.775Z,995.63
2018-03-29T06:41:37.766Z,995.63
2018-03-29T06:42:37.761Z,995.65
2018-03-29T06:43:37.750Z,995.64
2018-03-29T06:44:37.743Z,995.63
2018-03-29T06:45:37.734Z,995.67
2018-03-29T06:46:37.734Z,995.72
2018-03-29T06:47:37.719Z,995.66
2018-03-29T06:48:37.712Z,995.74
2018-03-29T06:49:37.701Z,995.71
2018-03-29T06:50:37.695Z,995.71
2018-03-29T06:51:37.686Z,995.75
2018-03-29T06:52:37.679Z,995.82
2018-03-29T06:53:37.677Z,995.82
2018-03-29T06:54:37.662Z,995.74
2018-03-29T06:55:37.656Z,995.92
2018-03-29T06:56:37.644Z,995.83
2018-03-29T06:57:37.642Z,995.78
2018-03-29T06:58:37.631Z,995.88
2018-03-29T06:59:37.659Z,995.89
2018-03-29T07:00:37.623Z,995.90
2018-03-29T07:01:37.607Z,995.85
2018-03-29T07:02:37.598Z,995.94
2018-03-29T07:03:37.594Z,995.87
2018-03-29T07:04:37.603Z,995.94
2018-03-29T07:05:37.576Z,995.96
2018-03-29T07:06:37.567Z,995.93
2018-03-29T07:07:37.567Z,995.97
2018-03-29T07:08:37.557Z,995.98
2018-03-29T07:09:37.543Z,995.97
2018-03-29T07:10:37.535Z,995.94
2018-03-29T07:11:37.529Z,995.93
2018-03-29T07:12:37.521Z,995.99
2018-03-29T07:13:37.512Z,996.02
2018-03-29T07:14:37.508Z,996.09
2018-03-29T07:15:37.502Z,996.06
2018-03-29T07:16:37.492Z,996.04
2018-03-29T07:17:37.483Z,996.09
2018-03-29T07:18:37.475Z,996.06
2018-03-29T07:19:37.467Z,996.07
2018-03-29T07:20:37.462Z,996.12
2018-03-29T07:21:37.456Z,996.18
2018-03-29T07:22:37.443Z,996.16
2018-03-29T07:23:37.436Z,996.18
2018-03-29T07:24:37.429Z,996.20
2018-03-29T07:25:37.421Z,996.18
2018-03-29T07:26:37.413Z,996.23
2018-03-29T07:27:37.408Z,996.23
2018-03-29T07:28:37.400Z,996.20
2018-03-29T07:29:37.389Z,996.28
2018-03-29T07:30:37.426Z,996.29
2018-03-29T07:31:37.371Z,996.27
2018-03-29T07:32:37.369Z,996.23
2018-03-29T07:33:37.359Z,996.31
2018-03-29T07:34:37.351Z,996.33
2018-03-29T07:35:37.346Z,996.32
2018-03-29T07:36:37.363Z,996.32
2018-03-29T07:37:37.329Z,996.33
2018-03-29T07:38:37.319Z,996.33
2018-03-29T07:39:37.317Z,996.36
2018-03-29T07:40:37.307Z,996.36
2018-03-29T07:41:37.296Z,996.50
2018-03-29T07:42:37.289Z,996.40
2018-03-29T07:43:37.280Z,996.40
2018-03-29T07:44:37.276Z,996.37
2018-03-29T07:45:37.265Z,996.37
2018-03-29T07:46:37.258Z,996.42
2018-03-29T07:47:37.252Z,996.43
2018-03-29T07:48:37.244Z,996.52
2018-03-29T07:49:37.239Z,996.52
2018-03-29T07:50:37.229Z,996.54
2018-03-29T07:51:37.221Z,996.48
2018-03-29T07:52:37.216Z,996.52
2018-03-29T07:53:37.207Z,996.54
2018-03-29T07:54:37.198Z,996.59
2018-03-29T07:55:37.193Z,996.64
2018-03-29T07:56:37.185Z,996.68
2018-03-29T07:57:37.186Z,996.73
2018-03-29T07:58:37.170Z,996.73
2018-03-29T07:59:37.181Z,996.75
2018-03-29T08:00:37.361Z,996.77
2018-03-29T08:01:37.145Z,996.71
2018-03-29T08:02:37.141Z,996.82
2018-03-29T08:03:37.133Z,996.82
2018-03-29T08:04:37.132Z,996.78
2018-03-29T08:05:37.118Z,996.82
2018-03-29T08:06:37.109Z,996.77
2018-03-29T08:07:37.100Z,996.87
2018-03-29T08:08:37.100Z,996.89
2018-03-29T08:09:37.094Z,996.87
2018-03-29T08:10:37.082Z,996.87
2018-03-29T08:11:37.124Z,996.86
2018-03-29T08:12:37.067Z,996.94
2018-03-29T08:13:37.057Z,996.96
2018-03-29T08:14:37.076Z,996.89
2018-03-29T08:15:37.049Z,996.95
2018-03-29T08:16:37.039Z,996.97
2018-03-29T08:17:37.037Z,997.07
2018-03-29T08:18:37.025Z,997.05
2018-03-29T08:19:37.017Z,996.95
2018-03-29T08:20:37.008Z,997.07
2018-03-29T08:21:37.003Z,997.05
2018-03-29T08:22:36.993Z,997.03
2018-03-29T08:23:36.987Z,997.08
2018-03-29T08:24:36.981Z,997.24
2018-03-29T08:25:36.976Z,997.20
2018-03-29T08:26:36.977Z,997.13
2018-03-29T08:27:36.959Z,997.26
2018-03-29T08:28:36.953Z,997.24
2018-03-29T08:29:36.944Z,997.19
2018-03-29T08:30:36.944Z,997.09
2018-03-29T08:31:36.930Z,997.27
2018-03-29T08:32:36.932Z,997.24
2018-03-29T08:33:36.916Z,997.34
2018-03-29T08:34:36.914Z,997.35
2018-03-29T08:35:36.947Z,997.31
2018-03-29T08:36:36.900Z,997.32
2018-03-29T08:37:36.886Z,997.36
2018-03-29T08:38:36.936Z,997.47
2018-03-29T08:39:36.873Z,997.47
2018-03-29T08:40:36.920Z,997.38
2018-03-29T08:41:36.859Z,997.39
2018-03-29T08:42:36.852Z,997.39
2018-03-29T08:43:36.840Z,997.46
2018-03-29T08:44:36.836Z,997.44
2018-03-29T08:45:36.831Z,997.50
2018-03-29T08:46:36.826Z,997.53
2018-03-29T08:47:36.818Z,997.53
2018-03-29T08:48:36.811Z,997.47
2018-03-29T08:49:36.803Z,997.52
2018-03-29T08:50:36.799Z,997.64
2018-03-29T08:51:36.789Z,997.57
2018-03-29T08:52:36.783Z,997.63
2018-03-29T08:53:36.776Z,997.60
2018-03-29T08:54:36.769Z,997.60
2018-03-29T08:55:36.763Z,997.60
2018-03-29T08:56:36.762Z,997.59
2018-03-29T08:57:36.752Z,997.65
2018-03-29T08:58:36.750Z,997.57
2018-03-29T08:59:36.731Z,997.62
2018-03-29T09:00:36.740Z,997.58
2018-03-29T09:01:36.724Z,997.61
2018-03-29T09:02:36.717Z,997.58
2018-03-29T09:03:36.710Z,997.61
2018-03-29T09:04:36.707Z,997.58
2018-03-29T09:05:36.698Z,997.66
2018-03-29T09:06:36.691Z,997.63
2018-03-29T09:07:36.687Z,997.68
2018-03-29T09:08:36.678Z,997.61
2018-03-29T09:09:36.671Z,997.66
2018-03-29T09:10:36.666Z,997.72
2018-03-29T09:11:36.658Z,997.68
2018-03-29T09:12:36.659Z,997.70
2018-03-29T09:13:36.645Z,997.82
2018-03-29T09:14:36.640Z,997.80
2018-03-29T09:15:36.633Z,997.80
2018-03-29T09:16:36.635Z,997.86
2018-03-29T09:17:36.623Z,997.82
2018-03-29T09:18:36.615Z,997.87
2018-03-29T09:19:36.609Z,997.88
2018-03-29T09:20:36.602Z,997.91
2018-03-29T09:21:36.594Z,997.88
2018-03-29T09:22:36.591Z,997.87
2018-03-29T09:23:36.583Z,997.93
2018-03-29T09:24:36.578Z,997.85
2018-03-29T09:25:36.576Z,997.89
2018-03-29T09:26:36.571Z,997.88
2018-03-29T09:27:36.560Z,997.99
2018-03-29T09:28:36.554Z,998.06
2018-03-29T09:29:36.547Z,997.94
2018-03-29T09:30:36.544Z,997.93
2018-03-29T09:31:36.536Z,998.10
2018-03-29T09:32:36.532Z,997.93
2018-03-29T09:33:36.528Z,998.04
2018-03-29T09:34:36.515Z,998.04
2018-03-29T09:35:36.558Z,998.07
2018-03-29T09:36:36.507Z,997.99
2018-03-29T09:37:36.503Z,997.98
2018-03-29T09:38:36.493Z,998.02
2018-03-29T09:39:36.489Z,998.10
2018-03-29T09:40:36.486Z,998.00
2018-03-29T09:41:36.524Z,997.95
2018-03-29T09:42:36.474Z,997.98
2018-03-29T09:43:36.468Z,998.05
2018-03-29T09:44:36.471Z,998.03
2018-03-29T09:45:36.459Z,998.04
2018-03-29T09:46:36.450Z,998.03
2018-03-29T09:47:36.442Z,998.08
2018-03-29T09:48:36.439Z,998.10
2018-03-29T09:49:36.433Z,998.11
2018-03-29T09:50:36.427Z,998.12
2018-03-29T09:51:36.421Z,998.11
2018-03-29T09:52:36.420Z,998.12
2018-03-29T09:53:36.408Z,998.16
2018-03-29T09:54:36.405Z,998.11
2018-03-29T09:55:36.393Z,998.06
2018-03-29T09:56:36.391Z,998.13
2018-03-29T09:57:36.387Z,997.94
2018-03-29T09:58:36.385Z,998.11
2018-03-29T09:59:36.378Z,998.09
2018-03-29T10:00:36.373Z,998.07
2018-03-29T10:01:36.365Z,998.11
2018-03-29T10:02:36.356Z,998.08
2018-03-29T10:03:36.354Z,998.15
2018-03-29T10:04:36.347Z,998.17
2018-03-29T10:05:36.339Z,998.03
2018-03-29T10:06:36.336Z,998.13
2018-03-29T10:07:36.328Z,998.13
2018-03-29T10:08:36.323Z,998.17
2018-03-29T10:09:36.317Z,998.17
2018-03-29T10:10:36.308Z,998.25
2018-03-29T10:11:36.304Z,998.20
2018-03-29T10:12:36.296Z,998.22
2018-03-29T10:13:36.292Z,998.24
2018-03-29T10:14:36.285Z,998.15
2018-03-29T10:15:36.276Z,998.22
2018-03-29T10:16:36.275Z,998.22
2018-03-29T10:17:36.268Z,998.21
2018-03-29T10:18:36.259Z,998.23
2018-03-29T10:19:36.256Z,998.23
2018-03-29T10:20:36.253Z,998.22
2018-03-29T10:21:36.247Z,998.24
2018-03-29T10:22:36.239Z,998.24
2018-03-29T10:23:36.234Z,998.25
2018-03-29T10:24:36.240Z,998.28
2018-03-29T10:25:36.221Z,998.25
2018-03-29T10:26:36.219Z,998.25
2018-03-29T10:27:36.209Z,998.35
2018-03-29T10:28:36.204Z,998.34
2018-03-29T10:29:36.196Z,998.34
2018-03-29T10:30:36.192Z,998.32
2018-03-29T10:31:36.185Z,998.27
2018-03-29T10:32:36.181Z,998.28
2018-03-29T10:33:36.177Z,998.36
2018-03-29T10:34:36.168Z,998.32
2018-03-29T10:35:36.163Z,998.29
2018-03-29T10:36:36.153Z,998.33
2018-03-29T10:37:36.155Z,998.31
2018-03-29T10:38:36.147Z,998.31
2018-03-29T10:39:36.141Z,998.41
2018-03-29T10:40:36.135Z,998.28
2018-03-29T10:41:36.135Z,998.38
2018-03-29T10:42:36.131Z,998.40
2018-03-29T10:43:36.118Z,998.40
2018-03-29T10:44:36.113Z,998.39
2018-03-29T10:45:36.106Z,998.42
2018-03-29T10:46:36.112Z,998.38
2018-03-29T10:47:36.101Z,998.42
2018-03-29T10:48:36.088Z,998.46
2018-03-29T10:49:36.086Z,998.47
2018-03-29T10:50:36.078Z,998.54
2018-03-29T10:51:36.076Z,998.49
2018-03-29T10:52:36.067Z,998.52
2018-03-29T10:53:36.061Z,998.48
2018-03-29T10:54:36.059Z,998.38
2018-03-29T10:55:36.059Z,998.47
2018-03-29T10:56:36.046Z,998.56
2018-03-29T10:57:36.041Z,998.54
2018-03-29T10:58:36.037Z,998.57
2018-03-29T10:59:36.031Z,998.56
2018-03-29T11:00:36.028Z,998.60
2018-03-29T11:01:36.016Z,998.56
2018-03-29T11:02:36.014Z,998.65
2018-03-29T11:03:36.008Z,998.54
2018-03-29T11:04:36.009Z,998.65
2018-03-29T11:05:35.998Z,998.60
2018-03-29T11:06:35.994Z,998.64
2018-03-29T11:07:35.989Z,998.59
2018-03-29T11:08:35.982Z,998.58
2018-03-29T11:09:35.979Z,998.58
2018-03-29T11:10:35.971Z,998.55
2018-03-29T11:11:35.970Z,998.59
2018-03-29T11:12:35.962Z,998.65
2018-03-29T11:13:35.959Z,998.59
2018-03-29T11:14:35.954Z,998.59
2018-03-29T11:15:35.952Z,998.65
2018-03-29T11:16:35.949Z,998.64
2018-03-29T11:17:35.939Z,998.65
2018-03-29T11:18:35.936Z,998.69
2018-03-29T11:19:35.929Z,998.72
2018-03-29T11:20:35.924Z,998.68
2018-03-29T11:21:35.924Z,998.70
2018-03-29T11:22:35.915Z,998.69
2018-03-29T11:23:35.920Z,998.69
2018-03-29T11:24:35.912Z,998.65
2018-03-29T11:25:35.902Z,998.73
2018-03-29T11:26:35.901Z,998.74
2018-03-29T11:27:35.895Z,998.73
2018-03-29T11:28:35.886Z,998.83
2018-03-29T11:29:35.887Z,998.81
2018-03-29T11:30:35.882Z,998.88
2018-03-29T11:31:35.876Z,998.90
2018-03-29T11:32:35.872Z,998.87
2018-03-29T11:33:35.868Z,998.74
2018-03-29T11:34:35.861Z,998.88
2018-03-29T11:35:35.858Z,998.96
2018-03-29T11:36:35.853Z,998.94
2018-03-29T11:37:35.851Z,999.11
2018-03-29T11:38:35.846Z,998.90
2018-03-29T11:39:35.841Z,999.03
2018-03-29T11:40:35.836Z,998.97
2018-03-29T11:41:35.832Z,999.04
2018-03-29T11:42:35.829Z,999.04
2018-03-29T11:43:35.822Z,999.10
2018-03-29T11:44:35.820Z,999.13
2018-03-29T11:45:35.814Z,999.14
2018-03-29T11:46:35.803Z,999.09
2018-03-29T11:47:35.804Z,999.16
2018-03-29T11:48:35.801Z,999.15
2018-03-29T11:49:35.797Z,999.10
2018-03-29T11:50:35.790Z,999.16
2018-03-29T11:51:35.793Z,999.17
2018-03-29T11:52:35.790Z,999.28
2018-03-29T11:53:35.778Z,999.10
2018-03-29T11:54:35.769Z,999.11
2018-03-29T11:55:35.760Z,999.15
2018-03-29T11:56:35.761Z,999.20
2018-03-29T11:57:35.756Z,999.10
2018-03-29T11:58:35.757Z,999.14
2018-03-29T11:59:35.746Z,999.22
2018-03-29T12:00:35.743Z,999.16
2018-03-29T12:01:35.735Z,999.12
2018-03-29T12:02:35.730Z,999.20
2018-03-29T12:03:35.734Z,999.21
2018-03-29T12:04:35.720Z,999.21
2018-03-29T12:05:35.717Z,999.25
2018-03-29T12:06:35.709Z,999.22
2018-03-29T12:07:35.704Z,999.22
2018-03-29T12:08:35.700Z,999.11
2018-03-29T12:09:35.752Z,999.23
2018-03-29T12:10:35.692Z,999.20
2018-03-29T12:11:35.685Z,999.27
2018-03-29T12:12:35.683Z,999.26
2018-03-29T12:13:35.676Z,999.20
2018-03-29T12:14:35.669Z,999.29
2018-03-29T12:15:35.669Z,999.20
2018-03-29T12:16:35.661Z,999.21
2018-03-29T12:17:35.658Z,999.27
2018-03-29T12:18:35.653Z,999.29
2018-03-29T12:19:35.655Z,999.37
2018-03-29T12:20:35.642Z,999.34
2018-03-29T12:21:35.637Z,999.27
2018-03-29T12:22:35.635Z,999.25
2018-03-29T12:23:35.627Z,999.22
2018-03-29T12:24:35.661Z,999.26
2018-03-29T12:25:35.636Z,999.23
2018-03-29T12:26:35.614Z,999.37
2018-03-29T12:27:35.615Z,999.22
2018-03-29T12:28:35.603Z,999.26